Time;durP1;ratioP1;P1;durP2;ratioP2;P2;SDS_P1;SDS_P2;PMS_P1;PMS_P2;Temp;Humidity;BMP_temperature;BMP_pressure;BME280_temperature;BME280_humidity;BME280_pressure;Samples;Min_cycle;Max_cycle;Signal;HPM_P1;HPM_P2
2022/09/29 00:01:37;;;;;;;8.25;5.80;;;13.00;95.80;;;;;;5052371;28;20021;-63
2022/09/29 00:04:03;;;;;;;6.97;6.28;;;13.00;95.80;;;;;;5053004;28;20390;-62
2022/09/29 00:06:29;;;;;;;8.25;5.55;;;13.00;95.80;;;;;;5052953;28;20182;-62
2022/09/29 00:08:54;;;;;;;9.82;6.40;;;13.00;95.80;;;;;;5052994;28;20040;-62
2022/09/29 00:11:20;;;;;;;7.20;6.43;;;13.00;95.80;;;;;;5052960;28;20028;-62
2022/09/29 00:13:46;;;;;;;9.52;6.05;;;13.00;95.90;;;;;;5053195;28;20017;-62
2022/09/29 00:16:12;;;;;;;8.27;5.43;;;13.00;95.90;;;;;;5052471;28;20057;-63
2022/09/29 00:18:39;;;;;;;7.13;5.95;;;12.90;95.90;;;;;;5052800;28;20029;-63
2022/09/29 00:21:13;;;;;;;8.32;6.07;;;13.00;96.00;;;;;;5052987;28;20079;-62
2022/09/29 00:23:39;;;;;;;8.13;5.55;;;12.90;96.00;;;;;;5052536;28;20044;-62
2022/09/29 00:26:07;;;;;;;7.68;5.13;;;12.90;96.20;;;;;;5052759;28;20051;-62
2022/09/29 00:28:34;;;;;;;9.57;6.20;;;12.90;96.20;;;;;;5052819;28;20025;-62
2022/09/29 00:31:01;;;;;;;6.35;5.30;;;12.90;96.10;;;;;;5052375;28;20024;-62
2022/09/29 00:33:32;;;;;;;6.45;5.57;;;12.90;96.20;;;;;;5052641;28;20028;-62
2022/09/29 00:36:04;;;;;;;9.00;6.10;;;12.90;96.30;;;;;;5052772;28;20095;-62
2022/09/29 00:38:30;;;;;;;11.73;6.22;;;12.90;96.40;;;;;;5052825;28;20024;-62
2022/09/29 00:41:00;;;;;;;6.72;5.40;;;12.90;96.50;;;;;;5052457;28;20057;-63
2022/09/29 00:44:02;;;;;;;9.25;6.00;;;12.80;96.50;;;;;;5052799;28;20037;-62
2022/09/29 00:46:34;;;;;;;7.38;5.85;;;12.90;96.40;;;;;;5023896;28;20383;-62
2022/09/29 00:49:05;;;;;;;6.93;6.23;;;12.90;96.60;;;;;;5016416;28;20097;-62
2022/09/29 00:51:33;;;;;;;9.18;5.88;;;12.90;96.60;;;;;;5016111;28;20026;-62
2022/09/29 00:53:59;;;;;;;7.72;6.18;;;12.80;96.60;;;;;;5016575;28;20025;-62
2022/09/29 00:56:26;;;;;;;7.80;5.85;;;12.80;96.60;;;;;;5016817;28;20018;-62
2022/09/29 00:59:06;;;;;;;6.78;5.70;;;12.80;96.60;;;;;;5016855;28;20021;-62
2022/09/29 01:01:32;;;;;;;8.65;6.03;;;12.90;96.60;;;;;;5016357;28;20038;-62
2022/09/29 01:04:03;;;;;;;7.68;6.43;;;12.80;96.70;;;;;;5016649;28;20038;-63
2022/09/29 01:06:40;;;;;;;6.90;5.72;;;12.80;96.70;;;;;;5016498;28;20054;-62
2022/09/29 01:09:09;;;;;;;12.30;6.20;;;12.80;96.60;;;;;;5016689;28;20029;-63
2022/09/29 01:11:35;;;;;;;8.32;6.05;;;12.80;96.70;;;;;;5016543;28;20022;-63
2022/09/29 01:14:03;;;;;;;8.23;6.00;;;12.80;96.60;;;;;;5016589;28;20033;-63
2022/09/29 01:16:33;;;;;;;9.32;6.75;;;12.70;96.50;;;;;;5016787;28;20026;-63
2022/09/29 01:19:01;;;;;;;7.00;6.22;;;12.70;96.70;;;;;;5016209;28;20025;-62
2022/09/29 01:21:32;;;;;;;10.15;6.50;;;12.70;96.70;;;;;;5016113;28;20030;-63
2022/09/29 01:24:23;;;;;;;7.03;5.80;;;12.70;96.70;;;;;;5016191;28;20506;-63
2022/09/29 01:27:03;;;;;;;7.70;5.90;;;12.70;96.70;;;;;;5016160;28;20025;-62
2022/09/29 01:30:06;;;;;;;6.68;5.15;;;12.70;96.60;;;;;;5015944;28;20026;-63
2022/09/29 01:33:09;;;;;;;7.13;6.18;;;12.70;96.60;;;;;;5016021;28;20034;-63
2022/09/29 01:36:00;;;;;;;8.82;5.93;;;12.70;96.60;;;;;;5016123;28;20491;-63
2022/09/29 01:38:44;;;;;;;8.48;6.50;;;12.60;96.70;;;;;;5013752;28;20059;-63
2022/09/29 01:41:27;;;;;;;8.23;6.15;;;12.60;96.80;;;;;;5016057;28;20523;-63
2022/09/29 01:44:44;;;;;;;7.45;5.90;;;12.60;97.00;;;;;;5015367;28;20037;-62
2022/09/29 01:47:18;;;;;;;8.57;6.32;;;12.70;96.80;;;;;;5011910;28;20050;-63
2022/09/29 01:49:58;;;;;;;11.60;6.90;;;12.60;97.10;;;;;;5015920;28;20076;-63
2022/09/29 01:52:28;;;;;;;7.63;6.10;;;12.60;97.00;;;;;;5030905;28;20030;-63
2022/09/29 01:55:01;;;;;;;8.23;6.07;;;12.60;96.80;;;;;;5015433;28;20374;-63
2022/09/29 01:57:38;;;;;;;9.35;6.10;;;12.60;96.80;;;;;;5015675;28;20053;-63
2022/09/29 02:00:11;;;;;;;6.60;5.90;;;12.60;96.70;;;;;;5015422;28;20113;-63
2022/09/29 02:02:49;;;;;;;9.85;6.38;;;12.60;96.70;;;;;;5015397;28;20042;-63
2022/09/29 02:05:20;;;;;;;9.40;5.93;;;12.60;96.80;;;;;;5015594;28;20028;-63
2022/09/29 02:07:47;;;;;;;8.23;5.32;;;12.50;96.80;;;;;;5015449;28;20033;-64
2022/09/29 02:10:27;;;;;;;7.53;5.40;;;12.50;96.80;;;;;;5015420;28;20021;-63
2022/09/29 02:12:55;;;;;;;9.57;6.35;;;12.60;96.70;;;;;;5015003;28;20029;-63
2022/09/29 02:15:25;;;;;;;9.13;5.45;;;12.50;96.80;;;;;;5015284;28;20072;-63
2022/09/29 02:17:56;;;;;;;10.25;5.80;;;12.50;96.90;;;;;;5015396;28;20083;-63
2022/09/29 02:20:23;;;;;;;8.88;6.00;;;12.50;96.70;;;;;;5015581;28;20053;-64
2022/09/29 02:22:48;;;;;;;8.40;5.82;;;12.50;96.80;;;;;;5014657;28;20559;-63
2022/09/29 02:25:17;;;;;;;9.73;6.57;;;12.40;96.80;;;;;;5015127;28;20105;-63
2022/09/29 02:27:43;;;;;;;8.02;6.10;;;12.50;97.10;;;;;;5014595;28;20014;-62
2022/09/29 02:30:10;;;;;;;9.27;6.20;;;12.50;96.80;;;;;;5015139;28;20022;-62
2022/09/29 02:32:36;;;;;;;7.93;6.18;;;12.50;96.80;;;;;;5015120;28;20018;-63
2022/09/29 02:35:05;;;;;;;9.05;6.38;;;12.40;96.80;;;;;;5014971;28;20036;-63
2022/09/29 02:38:00;;;;;;;10.13;6.50;;;12.40;96.90;;;;;;5015198;28;20416;-62
2022/09/29 02:40:44;;;;;;;7.80;7.05;;;12.40;96.80;;;;;;5015167;28;20026;-63
2022/09/29 02:43:31;;;;;;;7.68;6.07;;;12.40;97.10;;;;;;5014335;28;20095;-62
2022/09/29 02:46:04;;;;;;;10.98;6.60;;;12.40;96.90;;;;;;5014868;28;20028;-63
2022/09/29 02:48:44;;;;;;;7.13;6.15;;;12.30;96.90;;;;;;5014591;28;20038;-63
2022/09/29 02:51:33;;;;;;;9.43;6.03;;;12.30;97.00;;;;;;5014947;28;20024;-62
2022/09/29 02:54:04;;;;;;;8.20;5.85;;;12.30;97.10;;;;;;5014453;28;20097;-62
2022/09/29 02:57:04;;;;;;;10.85;6.60;;;12.20;97.10;;;;;;5014401;28;20021;-62
2022/09/29 03:00:04;;;;;;;9.48;6.00;;;12.30;96.90;;;;;;4998603;28;20034;-62
2022/09/29 03:02:30;;;;;;;8.48;6.10;;;12.20;96.90;;;;;;5014179;28;20434;-62
2022/09/29 03:04:56;;;;;;;9.10;5.97;;;12.20;97.10;;;;;;5014333;28;20068;-62
2022/09/29 03:07:21;;;;;;;8.73;6.22;;;12.20;97.20;;;;;;5013509;28;20053;-62
2022/09/29 03:09:47;;;;;;;7.63;6.85;;;12.20;97.20;;;;;;5012316;28;20068;-62
2022/09/29 03:12:12;;;;;;;8.98;6.13;;;12.20;97.20;;;;;;5013932;28;20025;-62
2022/09/29 03:14:38;;;;;;;6.63;5.60;;;12.20;97.30;;;;;;5014350;28;20025;-62
2022/09/29 03:17:04;;;;;;;6.78;6.07;;;12.20;97.30;;;;;;5014141;28;20026;-62
2022/09/29 03:19:29;;;;;;;6.72;5.60;;;12.20;97.20;;;;;;5014235;28;20101;-62
2022/09/29 03:21:55;;;;;;;8.30;5.97;;;12.20;97.20;;;;;;5013640;28;20399;-63
2022/09/29 03:24:20;;;;;;;8.30;6.25;;;12.10;97.10;;;;;;5014020;28;20028;-63
2022/09/29 03:26:46;;;;;;;13.35;6.15;;;12.10;97.10;;;;;;5014158;28;20101;-62
2022/09/29 03:29:11;;;;;;;9.40;6.70;;;12.10;97.10;;;;;;5013772;28;20033;-63
2022/09/29 03:31:39;;;;;;;12.55;6.82;;;12.10;97.10;;;;;;5014192;28;20071;-64
2022/09/29 03:34:05;;;;;;;6.97;5.93;;;12.10;97.10;;;;;;5013593;28;20032;-64
2022/09/29 03:36:30;;;;;;;7.30;6.47;;;12.10;97.20;;;;;;5029200;28;20021;-63
2022/09/29 03:38:56;;;;;;;7.10;6.40;;;12.10;97.30;;;;;;5013922;28;20033;-63
2022/09/29 03:41:21;;;;;;;9.88;6.32;;;12.00;97.30;;;;;;5013629;28;20141;-65
2022/09/29 03:43:47;;;;;;;7.85;5.82;;;12.00;97.30;;;;;;5013722;28;20033;-62
2022/09/29 03:46:13;;;;;;;9.82;6.82;;;12.10;97.30;;;;;;5013554;28;20010;-62
2022/09/29 03:48:39;;;;;;;9.45;6.18;;;12.10;97.60;;;;;;5013710;28;20368;-62
2022/09/29 03:51:04;;;;;;;7.80;6.78;;;12.00;97.20;;;;;;5028589;28;20018;-62
2022/09/29 03:53:32;;;;;;;11.57;6.82;;;12.00;97.00;;;;;;5013355;28;20191;-62
2022/09/29 03:55:57;;;;;;;7.30;6.10;;;12.00;97.10;;;;;;5013332;28;20097;-62
2022/09/29 03:58:24;;;;;;;9.98;6.18;;;12.00;97.20;;;;;;5013637;28;20161;-62
2022/09/29 04:00:49;;;;;;;8.23;6.35;;;12.00;97.20;;;;;;5013438;28;20028;-62
2022/09/29 04:03:15;;;;;;;7.72;6.03;;;12.00;97.10;;;;;;5013363;28;20446;-62
2022/09/29 04:05:40;;;;;;;8.98;5.95;;;12.00;97.20;;;;;;5013102;28;20508;-62
2022/09/29 04:08:07;;;;;;;9.07;6.80;;;11.90;97.20;;;;;;5012949;28;20022;-62
2022/09/29 04:10:36;;;;;;;14.20;6.38;;;12.00;97.20;;;;;;5013221;28;20084;-62
2022/09/29 04:13:03;;;;;;;8.90;6.93;;;12.00;97.20;;;;;;5013202;28;20399;-62
2022/09/29 04:15:29;;;;;;;9.68;6.57;;;11.90;97.20;;;;;;5013290;28;20050;-62
2022/09/29 04:17:54;;;;;;;7.13;6.43;;;11.90;97.20;;;;;;5013112;28;20026;-62
2022/09/29 04:20:20;;;;;;;9.63;7.05;;;11.90;97.20;;;;;;5013026;28;20026;-62
2022/09/29 04:22:45;;;;;;;9.98;6.47;;;11.90;97.10;;;;;;5012733;28;20446;-62
2022/09/29 04:25:11;;;;;;;8.40;7.53;;;11.90;97.20;;;;;;5013024;28;20037;-62
2022/09/29 04:27:37;;;;;;;9.80;7.22;;;11.90;97.20;;;;;;5013496;28;20041;-62
2022/09/29 04:30:03;;;;;;;8.13;6.63;;;11.80;97.20;;;;;;5013281;28;20293;-62
2022/09/29 04:32:29;;;;;;;9.50;7.53;;;11.90;97.30;;;;;;5012861;28;20022;-63
2022/09/29 04:34:54;;;;;;;9.77;7.07;;;11.90;97.30;;;;;;5013063;28;20105;-62
2022/09/29 04:37:20;;;;;;;7.88;6.93;;;11.80;97.30;;;;;;5012651;28;20104;-62
2022/09/29 04:39:45;;;;;;;8.43;7.63;;;11.80;97.40;;;;;;5013008;28;20030;-62
2022/09/29 04:42:11;;;;;;;8.60;7.47;;;11.80;97.40;;;;;;5012783;28;20045;-62
2022/09/29 04:44:36;;;;;;;8.57;7.70;;;11.80;97.40;;;;;;5013131;28;20065;-62
2022/09/29 04:47:02;;;;;;;12.77;8.48;;;11.70;97.40;;;;;;5028082;28;20056;-62
2022/09/29 04:49:27;;;;;;;10.63;8.25;;;11.80;97.40;;;;;;5012992;28;20423;-63
2022/09/29 04:51:53;;;;;;;10.35;8.93;;;11.70;97.50;;;;;;5012399;28;20045;-63
2022/09/29 04:54:18;;;;;;;11.13;8.38;;;11.70;97.60;;;;;;5012879;28;20033;-62
2022/09/29 04:56:46;;;;;;;12.85;10.02;;;11.70;97.50;;;;;;5012818;28;20026;-62
2022/09/29 04:59:12;;;;;;;12.98;8.70;;;11.70;97.60;;;;;;5012756;28;20030;-63
2022/09/29 05:01:38;;;;;;;13.88;8.60;;;11.70;97.50;;;;;;5013813;28;20026;-62
2022/09/29 05:04:03;;;;;;;12.80;8.85;;;11.70;97.80;;;;;;5023605;28;20029;-63
2022/09/29 05:06:29;;;;;;;16.50;8.38;;;11.70;97.60;;;;;;5045144;28;20048;-63
2022/09/29 05:08:55;;;;;;;12.63;9.13;;;11.70;97.00;;;;;;5046109;28;20063;-63
2022/09/29 05:11:20;;;;;;;13.15;8.40;;;11.70;96.60;;;;;;5032090;28;20041;-64
2022/09/29 05:13:49;;;;;;;18.80;8.52;;;11.80;96.40;;;;;;5032907;28;20075;-64
2022/09/29 05:16:15;;;;;;;13.23;8.27;;;11.90;96.20;;;;;;5030714;28;20490;-63
2022/09/29 05:18:41;;;;;;;12.45;7.85;;;11.90;95.90;;;;;;5025024;28;20117;-64
2022/09/29 05:21:07;;;;;;;15.80;10.23;;;11.90;95.90;;;;;;5033998;28;20029;-63
2022/09/29 05:23:34;;;;;;;11.77;8.57;;;11.90;95.90;;;;;;5038938;28;20041;-63
2022/09/29 05:26:04;;;;;;;11.52;8.98;;;11.80;95.90;;;;;;5030530;28;20099;-62
2022/09/29 05:28:31;;;;;;;12.93;9.80;;;11.90;95.90;;;;;;5016740;28;20041;-62
2022/09/29 05:31:06;;;;;;;14.38;12.80;;;11.80;95.90;;;;;;5025399;28;20422;-62
2022/09/29 05:33:33;;;;;;;13.27;11.98;;;11.80;95.90;;;;;;5028006;28;20037;-63
2022/09/29 05:35:59;;;;;;;14.55;10.52;;;11.80;96.00;;;;;;5025323;28;20036;-64
2022/09/29 05:38:24;;;;;;;16.77;10.00;;;11.80;96.00;;;;;;5042067;28;20120;-62
2022/09/29 05:40:51;;;;;;;11.88;9.75;;;11.80;96.00;;;;;;5030453;28;20545;-63
2022/09/29 05:43:17;;;;;;;10.18;9.18;;;11.80;96.00;;;;;;5031186;28;20463;-63
2022/09/29 05:45:43;;;;;;;11.85;9.18;;;11.80;95.90;;;;;;5034106;28;20028;-62
2022/09/29 05:48:09;;;;;;;11.38;8.40;;;11.80;95.90;;;;;;5033041;28;20430;-62
2022/09/29 05:50:40;;;;;;;15.93;13.25;;;11.80;95.90;;;;;;5037736;28;20027;-62
2022/09/29 05:53:10;;;;;;;15.97;14.37;;;11.80;95.80;;;;;;5036977;28;20021;-61
2022/09/29 05:55:37;;;;;;;14.80;12.07;;;11.70;96.60;;;;;;5043013;28;20788;-61
2022/09/29 05:58:06;;;;;;;10.32;8.13;;;11.70;96.70;;;;;;5046751;28;20029;-61
2022/09/29 06:00:32;;;;;;;12.23;9.77;;;11.50;97.60;;;;;;5051266;28;20397;-61
2022/09/29 06:02:59;;;;;;;9.38;8.43;;;11.50;97.80;;;;;;5033358;28;20418;-61
2022/09/29 06:05:25;;;;;;;13.85;7.70;;;11.50;97.40;;;;;;5032977;28;20028;-61
2022/09/29 06:07:51;;;;;;;9.38;7.55;;;11.50;97.90;;;;;;5033166;28;20039;-61
2022/09/29 06:10:17;;;;;;;9.75;6.72;;;11.50;98.00;;;;;;5044372;28;20028;-61
2022/09/29 06:12:43;;;;;;;11.68;8.15;;;11.50;98.00;;;;;;5037638;28;20026;-61
2022/09/29 06:15:10;;;;;;;10.77;8.52;;;11.50;97.70;;;;;;5034408;28;20022;-61
2022/09/29 06:17:36;;;;;;;13.23;8.73;;;11.50;97.40;;;;;;5031754;28;20029;-61
2022/09/29 06:20:02;;;;;;;10.95;8.70;;;11.50;97.40;;;;;;5032413;28;20032;-61
2022/09/29 06:22:28;;;;;;;12.13;9.60;;;11.50;97.50;;;;;;5033915;28;20045;-61
2022/09/29 06:24:54;;;;;;;8.90;7.95;;;11.50;97.50;;;;;;5034240;28;20383;-61
2022/09/29 06:27:19;;;;;;;14.18;9.13;;;11.50;97.40;;;;;;5033941;28;20356;-61
2022/09/29 06:29:45;;;;;;;18.05;10.57;;;11.50;97.40;;;;;;5034688;28;20021;-61
2022/09/29 06:32:10;;;;;;;14.48;11.20;;;11.50;97.50;;;;;;5034204;28;20018;-61
2022/09/29 06:37:33;;;;;;;16.85;9.95;;;11.50;97.50;;;;;;5033749;28;20486;-60
2022/09/29 06:37:34;;;;;;;11.98;9.60;;;11.50;97.70;;;;;;5034134;28;20123;-60
2022/09/29 06:40:02;;;;;;;13.88;9.52;;;11.50;97.80;;;;;;5040773;28;20478;-62
2022/09/29 06:42:28;;;;;;;13.18;9.80;;;11.40;98.10;;;;;;5034997;28;20115;-61
2022/09/29 06:44:54;;;;;;;11.48;9.02;;;11.40;98.30;;;;;;5034364;28;20398;-62
2022/09/29 06:47:20;;;;;;;14.57;9.75;;;11.40;98.50;;;;;;5037136;28;20463;-61
2022/09/29 06:49:45;;;;;;;12.95;10.13;;;11.50;98.80;;;;;;5034059;28;20500;-61
2022/09/29 06:52:11;;;;;;;10.80;9.57;;;11.50;98.40;;;;;;5027854;28;20029;-64
2022/09/29 06:54:36;;;;;;;14.00;9.55;;;11.50;98.40;;;;;;5031107;28;20026;-61
2022/09/29 06:57:02;;;;;;;12.57;9.65;;;11.50;98.40;;;;;;5040163;28;20064;-62
2022/09/29 06:59:27;;;;;;;14.13;10.50;;;11.50;98.60;;;;;;5040044;28;20034;-63
2022/09/29 07:01:53;;;;;;;15.43;10.63;;;11.50;98.80;;;;;;5032696;28;20039;-62
2022/09/29 07:04:19;;;;;;;13.90;10.90;;;11.60;99.00;;;;;;5041320;28;20029;-62
2022/09/29 07:06:45;;;;;;;17.33;11.15;;;11.60;99.10;;;;;;5038533;28;20029;-62
2022/09/29 07:09:14;;;;;;;11.50;10.13;;;11.60;99.30;;;;;;5032174;28;20039;-62
2022/09/29 07:11:45;;;;;;;13.55;9.85;;;11.60;99.60;;;;;;5047033;28;20025;-62
2022/09/29 07:14:22;;;;;;;10.30;8.85;;;11.60;99.60;;;;;;5045989;28;20064;-62
2022/09/29 07:16:48;;;;;;;13.57;9.65;;;11.70;99.70;;;;;;5039387;28;20025;-62
2022/09/29 07:19:15;;;;;;;14.07;9.07;;;11.70;99.80;;;;;;5037384;28;20029;-62
2022/09/29 07:21:41;;;;;;;11.75;9.95;;;11.70;99.90;;;;;;5047074;28;20032;-62
2022/09/29 07:24:07;;;;;;;15.65;10.25;;;11.80;99.90;;;;;;5045009;28;20037;-62
2022/09/29 07:26:33;;;;;;;12.82;10.77;;;11.80;99.90;;;;;;5038295;28;20022;-62
2022/09/29 07:28:59;;;;;;;15.95;11.50;;;11.90;99.90;;;;;;5037237;28;20179;-62
2022/09/29 07:31:24;;;;;;;16.33;10.77;;;11.90;99.90;;;;;;5035799;28;20022;-63
2022/09/29 07:33:51;;;;;;;13.43;10.02;;;12.00;99.90;;;;;;5030369;28;20491;-63
2022/09/29 07:36:18;;;;;;;13.20;9.65;;;12.00;99.90;;;;;;5032078;28;20108;-62
2022/09/29 07:38:48;;;;;;;13.15;9.95;;;12.10;99.90;;;;;;5035210;28;20172;-62
2022/09/29 07:41:15;;;;;;;13.07;9.90;;;12.10;99.90;;;;;;5031768;28;20028;-63
2022/09/29 07:43:41;;;;;;;11.23;8.60;;;12.20;99.90;;;;;;5042092;28;20045;-62
2022/09/29 07:46:07;;;;;;;12.73;10.50;;;12.20;99.90;;;;;;5042405;28;20482;-64
2022/09/29 07:48:34;;;;;;;15.18;8.75;;;12.30;99.90;;;;;;5034418;28;20032;-62
2022/09/29 07:51:01;;;;;;;10.20;9.00;;;12.30;99.90;;;;;;5052212;28;20036;-62
2022/09/29 07:53:27;;;;;;;9.95;8.68;;;12.40;99.90;;;;;;5033608;28;20033;-62
2022/09/29 07:55:53;;;;;;;10.95;9.35;;;12.50;99.90;;;;;;5031976;28;20402;-62
2022/09/29 07:58:18;;;;;;;9.65;8.70;;;12.50;99.90;;;;;;5033162;28;20025;-62
2022/09/29 08:00:44;;;;;;;13.27;8.75;;;12.50;99.90;;;;;;5031372;28;20072;-62
2022/09/29 08:03:10;;;;;;;14.43;9.43;;;12.60;99.90;;;;;;5032893;28;20091;-62
2022/09/29 08:05:35;;;;;;;12.82;8.90;;;12.60;99.90;;;;;;5040748;28;20049;-62
2022/09/29 08:08:03;;;;;;;11.75;8.48;;;12.70;99.90;;;;;;5045610;28;20453;-62
2022/09/29 08:10:31;;;;;;;15.77;7.85;;;12.70;99.80;;;;;;5032663;28;20041;-62
2022/09/29 08:12:57;;;;;;;13.60;8.07;;;12.80;99.80;;;;;;5038856;28;20025;-62
2022/09/29 08:15:23;;;;;;;11.52;7.40;;;12.80;99.70;;;;;;5033393;28;20025;-61
2022/09/29 08:17:51;;;;;;;12.90;8.18;;;12.90;99.80;;;;;;5031890;28;20029;-61
2022/09/29 08:20:17;;;;;;;12.98;7.57;;;12.90;99.60;;;;;;5035001;28;20351;-62
2022/09/29 08:22:43;;;;;;;11.20;8.18;;;13.00;99.60;;;;;;5043070;28;20060;-62
2022/09/29 08:25:08;;;;;;;10.35;7.80;;;13.00;99.60;;;;;;5041452;28;20036;-61
2022/09/29 08:27:34;;;;;;;9.60;7.90;;;13.00;99.60;;;;;;5043599;28;20048;-61
2022/09/29 08:30:00;;;;;;;11.80;8.50;;;13.10;99.60;;;;;;5032812;28;20029;-61
2022/09/29 08:32:25;;;;;;;10.75;7.60;;;13.10;99.60;;;;;;5032594;28;20026;-61
2022/09/29 08:34:51;;;;;;;13.57;9.15;;;13.10;99.70;;;;;;5032878;28;20030;-62
2022/09/29 08:37:17;;;;;;;9.98;8.02;;;13.20;99.70;;;;;;5033041;28;20017;-60
2022/09/29 08:39:43;;;;;;;10.82;7.40;;;13.20;99.60;;;;;;5032704;28;20467;-63
2022/09/29 08:42:30;;;;;;;11.73;6.75;;;13.20;99.50;;;;;;5032555;28;20057;-63
2022/09/29 08:45:04;;;;;;;9.45;7.22;;;13.30;99.40;;;;;;5032593;28;20021;-63
2022/09/29 08:47:46;;;;;;;9.35;6.40;;;13.30;99.50;;;;;;5032704;28;20056;-60
2022/09/29 08:50:28;;;;;;;8.50;6.70;;;13.30;99.50;;;;;;5032793;28;20029;-63
2022/09/29 08:52:58;;;;;;;9.80;6.68;;;13.30;99.50;;;;;;5033021;28;20040;-62
2022/09/29 08:55:34;;;;;;;9.10;6.05;;;13.30;99.50;;;;;;5032383;28;20055;-62
2022/09/29 08:58:01;;;;;;;9.32;6.28;;;13.40;99.40;;;;;;5032611;28;20017;-62
2022/09/29 09:00:39;;;;;;;7.20;5.22;;;13.40;99.40;;;;;;5032460;28;20052;-62
2022/09/29 09:03:11;;;;;;;20.10;15.52;;;13.40;99.40;;;;;;5032418;28;20042;-63
2022/09/29 09:06:04;;;;;;;11.98;6.35;;;13.40;99.30;;;;;;5034748;28;20026;-62
2022/09/29 09:08:38;;;;;;;10.68;6.30;;;13.50;99.30;;;;;;5036228;28;20056;-62
2022/09/29 09:11:04;;;;;;;12.57;6.35;;;13.50;99.20;;;;;;5036614;28;20025;-62
2022/09/29 09:13:38;;;;;;;9.13;6.53;;;13.50;99.20;;;;;;5036098;28;20500;-62
2022/09/29 09:16:33;;;;;;;13.40;6.32;;;13.50;99.10;;;;;;5036457;28;20505;-62
2022/09/29 09:19:24;;;;;;;8.20;6.35;;;13.50;99.20;;;;;;5034371;28;20582;-62
2022/09/29 09:22:24;;;;;;;9.93;6.10;;;13.60;97.00;;;;;;5036281;28;20043;-62
2022/09/29 09:25:03;;;;;;;7.20;4.82;;;13.60;96.10;;;;;;5028920;28;20398;-62
2022/09/29 09:28:04;;;;;;;9.25;4.50;;;13.70;95.80;;;;;;5035652;28;20029;-62
2022/09/29 09:30:36;;;;;;;7.43;3.33;;;13.70;95.60;;;;;;5034626;28;20486;-63
2022/09/29 09:33:04;;;;;;;;;;;13.70;95.50;;;;;;5036186;28;20550;-62
2022/09/29 09:35:33;;;;;;;9.93;2.80;;;13.70;95.90;;;;;;5035963;28;20372;-62
2022/09/29 09:38:07;;;;;;;5.25;2.55;;;13.80;95.50;;;;;;5034506;28;20043;-62
2022/09/29 09:40:42;;;;;;;5.15;3.30;;;13.80;95.60;;;;;;5035699;28;20018;-62
2022/09/29 09:43:21;;;;;;;4.63;2.85;;;13.80;95.30;;;;;;5035488;28;20044;-62
2022/09/29 09:45:54;;;;;;;5.53;2.67;;;13.80;95.30;;;;;;5035739;28;20021;-62
2022/09/29 09:48:32;;;;;;;4.63;2.75;;;13.80;95.40;;;;;;5035540;28;20021;-62
2022/09/29 09:51:04;;;;;;;13.55;3.95;;;13.90;95.80;;;;;;5035578;28;20013;-62
2022/09/29 09:53:41;;;;;;;9.00;3.30;;;13.90;95.60;;;;;;5035465;28;20390;-62
2022/09/29 09:56:38;;;;;;;3.97;2.55;;;13.90;95.50;;;;;;5035327;28;20025;-63
2022/09/29 09:59:04;;;;;;;3.17;1.83;;;13.90;95.50;;;;;;5035112;28;20040;-62
2022/09/29 10:01:29;;;;;;;2.88;1.40;;;13.90;95.50;;;;;;5034084;28;20017;-62
2022/09/29 10:03:58;;;;;;;4.80;1.50;;;13.90;95.50;;;;;;5043087;28;20390;-62
2022/09/29 10:06:23;;;;;;;7.15;2.00;;;14.00;95.50;;;;;;5044220;28;20096;-62
2022/09/29 10:08:49;;;;;;;3.42;1.80;;;14.00;95.50;;;;;;5046206;28;20116;-63
2022/09/29 10:11:26;;;;;;;2.92;1.52;;;14.00;95.40;;;;;;5034857;28;20048;-62
2022/09/29 10:14:14;;;;;;;2.53;1.10;;;14.00;95.30;;;;;;5016575;28;20030;-62
2022/09/29 10:16:53;;;;;;;2.72;1.13;;;14.00;95.20;;;;;;5038100;28;20080;-62
2022/09/29 10:19:43;;;;;;;3.63;1.05;;;14.10;95.10;;;;;;5048736;28;20079;-64
2022/09/29 10:22:13;;;;;;;3.28;1.20;;;14.10;95.20;;;;;;5032962;28;20052;-63
2022/09/29 10:24:38;;;;;;;3.28;1.55;;;14.10;95.30;;;;;;5040630;28;20052;-63
2022/09/29 10:27:04;;;;;;;4.72;1.77;;;14.10;95.30;;;;;;5042170;28;20473;-63
2022/09/29 10:29:36;;;;;;;4.45;1.73;;;14.10;95.40;;;;;;5034205;28;20091;-62
2022/09/29 10:32:05;;;;;;;6.85;2.10;;;14.10;95.40;;;;;;5021848;28;20018;-62
2022/09/29 10:34:34;;;;;;;2.75;1.60;;;14.10;95.60;;;;;;5022629;28;20076;-62
2022/09/29 10:37:17;;;;;;;3.08;1.35;;;14.10;95.60;;;;;;5024483;28;20426;-63
2022/09/29 10:39:47;;;;;;;1.92;1.58;;;14.20;95.60;;;;;;5031418;28;20037;-63
2022/09/29 10:42:40;;;;;;;3.25;1.58;;;14.20;95.60;;;;;;5021850;28;20031;-63
2022/09/29 10:45:16;;;;;;;4.25;1.50;;;14.20;95.50;;;;;;5029045;28;20025;-62
2022/09/29 10:48:11;;;;;;;2.00;1.35;;;14.20;95.70;;;;;;5024085;28;20160;-63
2022/09/29 10:50:51;;;;;;;4.53;1.77;;;14.20;95.80;;;;;;5026054;28;20029;-63
2022/09/29 10:53:34;;;;;;;1.95;0.88;;;14.30;95.90;;;;;;5025823;28;20072;-63
2022/09/29 10:56:07;;;;;;;2.85;1.55;;;14.30;95.40;;;;;;5025966;28;20041;-63
2022/09/29 10:58:38;;;;;;;2.33;1.10;;;14.30;95.40;;;;;;5027815;28;20136;-63
2022/09/29 11:01:09;;;;;;;6.30;1.75;;;14.30;95.50;;;;;;5024456;28;20022;-63
2022/09/29 11:03:45;;;;;;;3.40;1.50;;;14.40;95.50;;;;;;5021646;28;20069;-63
2022/09/29 11:06:12;;;;;;;2.40;1.48;;;14.40;95.60;;;;;;5019183;28;20030;-63
2022/09/29 11:09:05;;;;;;;2.85;1.45;;;14.40;95.60;;;;;;5030806;28;20022;-63
2022/09/29 11:11:32;;;;;;;;;;;14.40;95.40;;;;;;5033307;28;20017;-63
2022/09/29 11:13:59;;;;;;;2.35;0.90;;;14.40;95.60;;;;;;5030263;28;20275;-64
2022/09/29 11:16:36;;;;;;;2.03;0.80;;;14.40;95.20;;;;;;5044157;28;20032;-64
2022/09/29 11:19:09;;;;;;;1.98;0.50;;;14.50;94.80;;;;;;5040877;28;20021;-65
2022/09/29 11:21:41;;;;;;;1.23;0.63;;;14.50;94.50;;;;;;5023485;28;20022;-64
2022/09/29 11:24:16;;;;;;;2.10;0.60;;;14.50;94.30;;;;;;5032778;28;20038;-64
2022/09/29 11:27:11;;;;;;;1.80;0.68;;;14.50;94.00;;;;;;5033295;28;20030;-64
2022/09/29 11:29:56;;;;;;;2.38;0.47;;;14.60;94.30;;;;;;5034859;28;20025;-65
2022/09/29 11:32:22;;;;;;;1.75;0.43;;;14.60;94.30;;;;;;5032816;28;20022;-63
2022/09/29 11:34:50;;;;;;;3.20;0.68;;;14.60;94.00;;;;;;5032502;28;20029;-63
2022/09/29 11:37:56;;;;;;;2.22;0.60;;;14.60;93.50;;;;;;5032840;28;20022;-62
2022/09/29 11:40:43;;;;;;;1.75;0.70;;;14.60;93.70;;;;;;5032841;28;20198;-63
2022/09/29 11:43:44;;;;;;;4.28;0.80;;;14.70;93.70;;;;;;5032773;28;20033;-62
2022/09/29 11:46:27;;;;;;;1.33;0.50;;;14.70;93.80;;;;;;5024750;28;20097;-62
2022/09/29 11:49:38;;;;;;;34.60;3.97;;;14.70;93.60;;;;;;5035532;28;20104;-66
2022/09/29 11:52:10;;;;;;;1.58;0.70;;;14.70;94.50;;;;;;5019849;28;20065;-62
2022/09/29 11:54:49;;;;;;;1.80;0.60;;;14.80;94.20;;;;;;5035490;28;20053;-62
2022/09/29 11:57:54;;;;;;;3.15;0.60;;;14.90;94.30;;;;;;5032656;28;20021;-62
2022/09/29 12:00:26;;;;;;;3.33;0.52;;;14.90;94.30;;;;;;5020657;28;20041;-62
2022/09/29 12:02:58;;;;;;;3.40;1.50;;;14.90;93.80;;;;;;5043921;28;20048;-62
2022/09/29 12:05:48;;;;;;;3.45;0.80;;;15.00;94.70;;;;;;5051546;28;20017;-62
2022/09/29 12:08:33;;;;;;;4.63;1.00;;;15.00;95.60;;;;;;5031528;28;20116;-62
2022/09/29 12:11:13;;;;;;;3.17;1.20;;;15.00;95.70;;;;;;5031894;28;20025;-62
2022/09/29 12:13:50;;;;;;;4.40;0.88;;;15.10;96.20;;;;;;5031186;28;20082;-62
2022/09/29 12:16:27;;;;;;;4.50;0.93;;;15.20;96.80;;;;;;5032174;28;20148;-62
2022/09/29 12:19:08;;;;;;;2.10;0.90;;;15.10;95.20;;;;;;5031955;28;20033;-62
2022/09/29 12:21:49;;;;;;;2.50;1.00;;;15.20;94.80;;;;;;5031907;28;20029;-60
2022/09/29 12:24:40;;;;;;;3.88;0.90;;;15.20;94.60;;;;;;5038013;28;20037;-63
2022/09/29 12:27:47;;;;;;;1.92;0.85;;;15.20;95.20;;;;;;5052055;28;20028;-64
2022/09/29 12:30:20;;;;;;;6.50;0.82;;;15.20;94.70;;;;;;5019185;28;20495;-65
2022/09/29 12:32:53;;;;;;;2.22;1.05;;;15.20;94.50;;;;;;5030338;28;20025;-63
2022/09/29 12:35:44;;;;;;;2.78;0.82;;;15.20;94.30;;;;;;5032413;28;20045;-64
2022/09/29 12:38:15;;;;;;;2.42;0.80;;;15.30;94.10;;;;;;5012083;28;20107;-62
2022/09/29 12:41:08;;;;;;;1.73;0.60;;;15.30;93.90;;;;;;5029107;28;20022;-62
2022/09/29 12:43:45;;;;;;;3.50;0.80;;;15.30;94.20;;;;;;5052851;28;20080;-63
2022/09/29 12:46:23;;;;;;;3.72;0.80;;;15.30;93.60;;;;;;5036410;28;20014;-63
2022/09/29 12:49:00;;;;;;;1.67;0.70;;;15.30;94.00;;;;;;5039701;28;20473;-64
2022/09/29 12:51:35;;;;;;;4.05;0.90;;;15.40;93.90;;;;;;5035946;28;20105;-64
2022/09/29 12:54:34;;;;;;;4.75;0.57;;;15.40;93.70;;;;;;5036532;28;20029;-64
2022/09/29 12:57:04;;;;;;;4.70;0.70;;;15.50;94.10;;;;;;5046448;28;20057;-63
2022/09/29 12:59:36;;;;;;;6.40;0.50;;;15.50;95.30;;;;;;5036500;28;20041;-67
2022/09/29 13:02:13;;;;;;;4.00;0.85;;;15.50;95.70;;;;;;5035995;28;20032;-65
2022/09/29 13:04:50;;;;;;;6.50;0.93;;;15.60;95.50;;;;;;5035439;28;20045;-63
2022/09/29 13:07:33;;;;;;;2.28;0.52;;;15.60;95.00;;;;;;5055988;28;20049;-66
2022/09/29 13:10:16;;;;;;;1.92;0.40;;;15.60;94.60;;;;;;5037713;28;20033;-66